Time;durP1;ratioP1;P1;durP2;ratioP2;P2;SDS_P1;SDS_P2;PMS_P1;PMS_P2;Temp;Humidity;BMP_temperature;BMP_pressure;BME280_temperature;BME280_humidity;BME280_pressure;Samples;Min_cycle;Max_cycle;Signal;HPM_P1;HPM_P2
2022/01/21 00:00:21;;;;;;;8.97;3.20;;;-1.10;99.90;;;;;;2088856;28;20175;-69
2022/01/21 00:01:25;;;;;;;7.00;2.60;;;-1.10;99.90;;;;;;2097076;28;20172;-68
2022/01/21 00:02:26;;;;;;;10.88;3.25;;;-1.00;99.90;;;;;;2097708;28;20581;-69
2022/01/21 00:03:27;;;;;;;7.50;3.00;;;-0.90;99.90;;;;;;2099231;28;20182;-69
2022/01/21 00:04:28;;;;;;;4.83;2.97;;;-0.80;99.90;;;;;;2072743;28;20184;-71
2022/01/21 00:05:28;;;;;;;5.60;2.57;;;-0.80;99.90;;;;;;2088469;28;20707;-70
2022/01/21 00:06:31;;;;;;;11.60;3.07;;;-0.90;99.90;;;;;;2088879;28;20179;-69
2022/01/21 00:07:31;;;;;;;7.32;3.05;;;-0.90;99.90;;;;;;2088440;28;20180;-68
2022/01/21 00:08:37;;;;;;;8.13;3.23;;;-1.00;99.90;;;;;;2088810;28;20691;-69
2022/01/21 00:09:40;;;;;;;7.35;3.30;;;-1.10;99.90;;;;;;2096345;28;20207;-68
2022/01/21 00:10:40;;;;;;;5.60;2.63;;;-1.10;99.90;;;;;;2088904;28;20293;-69
2022/01/21 00:11:41;;;;;;;9.27;2.70;;;-1.10;99.90;;;;;;2096357;28;20599;-69
2022/01/21 00:12:42;;;;;;;6.20;3.27;;;-1.10;99.90;;;;;;2088490;28;20263;-68
2022/01/21 00:13:44;;;;;;;4.30;2.70;;;-1.00;99.90;;;;;;2096666;28;20606;-68
2022/01/21 00:14:46;;;;;;;7.50;2.65;;;-1.00;99.90;;;;;;2080765;28;20522;-67
2022/01/21 00:15:46;;;;;;;6.95;3.00;;;-1.00;99.90;;;;;;2084125;28;20192;-70
2022/01/21 00:16:47;;;;;;;6.57;2.87;;;-0.90;99.90;;;;;;2084790;28;20246;-68
2022/01/21 00:17:47;;;;;;;6.57;3.13;;;-1.00;99.90;;;;;;2096403;28;20184;-70
2022/01/21 00:19:05;;;;;;;9.17;2.83;;;-1.00;99.90;;;;;;2091291;28;20189;-69
2022/01/21 00:30:44;;;;;;;6.13;2.95;;;-1.40;99.90;;;;;;2086041;28;20225;-71
2022/01/21 00:31:44;;;;;;;5.53;2.20;;;-1.30;99.90;;;;;;2082932;28;20653;-71
2022/01/21 00:32:47;;;;;;;7.10;2.83;;;-1.40;99.90;;;;;;2089134;28;20591;-71
2022/01/21 00:33:48;;;;;;;5.95;2.83;;;-1.40;99.90;;;;;;2089144;28;20169;-72
2022/01/21 00:34:49;;;;;;;5.07;2.63;;;-1.40;99.90;;;;;;2089024;28;20526;-71
2022/01/21 00:35:50;;;;;;;6.90;3.00;;;-1.40;99.90;;;;;;2102819;28;20194;-71
2022/01/21 00:36:51;;;;;;;7.53;2.67;;;-1.50;99.90;;;;;;2091713;28;20184;-71
2022/01/21 00:37:52;;;;;;;5.82;2.85;;;-1.50;99.90;;;;;;2091964;28;20218;-71
2022/01/21 00:38:56;;;;;;;5.90;2.87;;;-1.60;99.90;;;;;;2105606;28;20193;-71
2022/01/21 00:39:59;;;;;;;5.05;2.78;;;-1.60;99.90;;;;;;2105534;28;20221;-72
2022/01/21 00:41:03;;;;;;;4.57;2.80;;;-1.60;99.90;;;;;;2096817;28;20536;-71
2022/01/21 00:44:09;;;;;;;8.37;2.57;;;-1.60;99.90;;;;;;2091942;28;20179;-72
2022/01/21 00:45:13;;;;;;;5.67;2.83;;;-1.60;99.90;;;;;;2094099;28;20632;-72
2022/01/21 00:46:14;;;;;;;9.60;3.03;;;-1.70;99.90;;;;;;2103174;28;20665;-71
2022/01/21 00:47:15;;;;;;;4.50;2.70;;;-1.70;99.90;;;;;;2105622;28;20268;-71
2022/01/21 00:48:16;;;;;;;7.63;2.40;;;-1.70;99.90;;;;;;2089004;28;20181;-71
2022/01/21 00:49:17;;;;;;;9.77;2.57;;;-1.70;99.90;;;;;;2096851;28;20194;-71
2022/01/21 00:50:17;;;;;;;6.83;2.63;;;-1.70;99.90;;;;;;2097297;28;20183;-71
2022/01/21 00:51:19;;;;;;;6.73;2.50;;;-1.60;99.90;;;;;;2097203;28;20174;-71
2022/01/21 00:52:19;;;;;;;5.15;2.20;;;-1.60;99.90;;;;;;2105578;28;20210;-71
2022/01/21 00:53:20;;;;;;;5.30;2.57;;;-1.70;99.90;;;;;;2097040;28;20183;-71
2022/01/21 00:54:21;;;;;;;4.13;2.80;;;-1.60;99.90;;;;;;2088944;28;20178;-72
2022/01/21 00:55:23;;;;;;;5.20;2.53;;;-1.70;99.90;;;;;;2097196;28;20545;-71
2022/01/21 00:56:23;;;;;;;5.15;2.60;;;-1.70;99.90;;;;;;2095245;28;20183;-71
2022/01/21 00:57:24;;;;;;;8.23;3.33;;;-1.60;99.90;;;;;;2089121;28;20183;-71
2022/01/21 00:58:25;;;;;;;4.40;2.50;;;-1.70;99.90;;;;;;2097300;28;20621;-71
2022/01/21 00:59:25;;;;;;;6.33;3.03;;;-1.70;99.90;;;;;;2096946;28;20226;-71
2022/01/21 01:00:26;;;;;;;4.50;2.47;;;-1.70;99.90;;;;;;2097503;28;20255;-71
2022/01/21 01:01:27;;;;;;;3.90;2.47;;;-1.70;99.90;;;;;;2097366;28;20559;-72
2022/01/21 01:02:29;;;;;;;13.53;2.97;;;-1.80;99.90;;;;;;2097395;28;20183;-72
2022/01/21 01:03:29;;;;;;;3.92;2.38;;;-1.80;99.90;;;;;;2105380;28;20815;-72
2022/01/21 01:04:31;;;;;;;6.37;2.37;;;-1.80;99.90;;;;;;2088947;28;20184;-72
2022/01/21 01:05:32;;;;;;;8.80;2.97;;;-1.80;99.90;;;;;;2097253;28;20214;-72
2022/01/21 01:06:32;;;;;;;4.37;2.23;;;-1.80;99.90;;;;;;2097452;28;20579;-71
2022/01/21 01:07:33;;;;;;;4.83;2.10;;;-1.70;99.90;;;;;;2097871;28;20180;-72
2022/01/21 01:08:34;;;;;;;6.30;2.57;;;-1.70;99.90;;;;;;2097224;28;20185;-71
2022/01/21 01:09:35;;;;;;;7.47;2.40;;;-1.70;99.90;;;;;;2097067;28;20202;-71
2022/01/21 01:10:44;;;;;;;8.55;2.72;;;-1.70;99.90;;;;;;2097257;28;20194;-71
2022/01/21 01:19:54;;;;;;;5.32;2.17;;;-1.60;99.90;;;;;;2091072;28;20245;-71
2022/01/21 01:20:58;;;;;;;4.40;2.58;;;-1.50;99.90;;;;;;2097953;28;20245;-72
2022/01/21 01:21:59;;;;;;;3.50;2.10;;;-1.60;99.90;;;;;;2097320;28;20560;-72
2022/01/21 01:23:23;;;;;;;9.20;3.10;;;-1.60;99.90;;;;;;2097036;28;20174;-72
2022/01/21 01:28:18;;;;;;;5.45;2.63;;;-1.60;99.90;;;;;;2102505;28;20182;-72
2022/01/21 01:29:19;;;;;;;7.87;3.47;;;-1.50;99.90;;;;;;2102991;28;20205;-72
2022/01/21 01:30:25;;;;;;;5.15;2.28;;;-1.60;99.90;;;;;;2097206;28;20254;-71
2022/01/21 01:31:25;;;;;;;7.63;2.30;;;-1.50;99.90;;;;;;2097324;28;20160;-71
2022/01/21 01:32:28;;;;;;;5.73;2.47;;;-1.50;99.90;;;;;;2098851;28;20636;-72
2022/01/21 01:33:36;;;;;;;6.00;2.63;;;-1.40;99.90;;;;;;2099374;28;20174;-72
2022/01/21 01:34:36;;;;;;;7.13;2.35;;;-1.40;99.90;;;;;;2099527;28;20183;-71
2022/01/21 01:35:39;;;;;;;8.83;2.40;;;-1.30;99.90;;;;;;2107175;28;20188;-71
2022/01/21 01:36:42;;;;;;;6.18;2.55;;;-1.30;99.90;;;;;;2098777;28;20175;-71
2022/01/21 01:40:12;;;;;;;6.47;2.50;;;-1.30;99.90;;;;;;2092278;28;20275;-71
2022/01/21 01:41:15;;;;;;;6.95;2.53;;;-1.40;99.90;;;;;;2098958;28;20166;-71
2022/01/21 01:49:32;;;;;;;5.10;2.88;;;-1.40;99.90;;;;;;2106769;28;20293;-71
2022/01/21 01:50:34;;;;;;;6.55;2.40;;;-1.40;99.90;;;;;;2106801;28;20178;-71
2022/01/21 01:51:35;;;;;;;4.75;3.42;;;-1.40;99.90;;;;;;2107092;28;20685;-71
2022/01/21 01:52:36;;;;;;;3.43;2.23;;;-1.40;99.90;;;;;;2107189;28;20179;-71
2022/01/21 01:53:47;;;;;;;3.75;1.90;;;-1.40;99.90;;;;;;2098802;28;20178;-71
2022/01/21 01:54:54;;;;;;;5.13;2.20;;;-1.40;99.90;;;;;;2098691;28;20254;-71
2022/01/21 01:55:57;;;;;;;4.47;2.38;;;-1.40;99.90;;;;;;2099653;28;20640;-71
2022/01/21 01:56:58;;;;;;;5.63;2.42;;;-1.40;99.90;;;;;;2098776;28;20574;-71
2022/01/21 01:57:59;;;;;;;5.60;2.27;;;-1.30;99.90;;;;;;2098580;28;20225;-72
2022/01/21 01:58:59;;;;;;;7.60;2.90;;;-1.30;99.90;;;;;;2106863;28;20185;-72
2022/01/21 02:00:00;;;;;;;6.33;2.50;;;-1.30;99.90;;;;;;2098539;28;20206;-72
2022/01/21 02:01:01;;;;;;;6.97;2.23;;;-1.30;99.90;;;;;;2098604;28;20191;-72
2022/01/21 02:02:09;;;;;;;6.80;2.40;;;-1.30;99.90;;;;;;2106856;28;20233;-72
2022/01/21 02:03:14;;;;;;;6.38;2.90;;;-1.30;99.90;;;;;;2098861;28;20167;-71
2022/01/21 02:04:14;;;;;;;5.93;2.05;;;-1.40;99.90;;;;;;2098741;28;20285;-71
2022/01/21 02:05:15;;;;;;;5.67;2.57;;;-1.30;99.90;;;;;;2099299;28;20640;-71
2022/01/21 02:06:16;;;;;;;5.13;2.23;;;-1.20;99.90;;;;;;2098590;28;20204;-71
2022/01/21 02:07:16;;;;;;;6.47;2.20;;;-1.30;99.90;;;;;;2098729;28;20176;-71
2022/01/21 02:08:17;;;;;;;6.23;3.03;;;-1.30;99.90;;;;;;2099261;28;20658;-71
2022/01/21 02:09:18;;;;;;;7.80;2.60;;;-1.30;99.90;;;;;;2106769;28;20662;-71
2022/01/21 02:10:19;;;;;;;5.05;2.40;;;-1.30;99.90;;;;;;2098840;28;20860;-71
2022/01/21 02:11:20;;;;;;;4.53;2.47;;;-1.30;99.90;;;;;;2098608;28;20212;-71
2022/01/21 02:12:20;;;;;;;3.50;2.10;;;-1.30;99.90;;;;;;2107004;28;20783;-71
2022/01/21 02:13:25;;;;;;;5.27;2.40;;;-1.30;99.90;;;;;;2099372;28;20228;-72
2022/01/21 02:14:33;;;;;;;4.70;2.00;;;-1.30;99.90;;;;;;2106964;28;20188;-72
2022/01/21 02:15:35;;;;;;;4.85;1.90;;;-1.30;99.90;;;;;;2105797;28;20170;-72
2022/01/21 02:21:57;;;;;;;6.32;3.03;;;-1.50;99.90;;;;;;2099195;28;20802;-71
2022/01/21 02:22:57;;;;;;;8.00;2.50;;;-1.40;99.90;;;;;;2098779;28;20183;-72
2022/01/21 02:24:23;;;;;;;6.37;2.40;;;-1.30;99.90;;;;;;2099125;28;20179;-71
2022/01/21 02:25:24;;;;;;;10.70;2.60;;;-1.30;99.90;;;;;;2090461;28;20269;-72
2022/01/21 02:26:25;;;;;;;6.23;2.40;;;-1.40;99.90;;;;;;2082326;28;20251;-71
2022/01/21 02:27:27;;;;;;;6.32;2.40;;;-1.40;99.90;;;;;;2090346;28;20206;-72
2022/01/21 02:28:27;;;;;;;7.57;2.40;;;-1.50;99.90;;;;;;2090209;28;20263;-72
2022/01/21 02:29:31;;;;;;;3.67;2.10;;;-1.40;99.90;;;;;;2089884;28;20663;-71
2022/01/21 02:30:32;;;;;;;5.97;2.00;;;-1.50;99.90;;;;;;2098486;28;20174;-72
2022/01/21 02:31:35;;;;;;;6.97;2.57;;;-1.60;99.90;;;;;;2099313;28;20199;-72
2022/01/21 02:32:35;;;;;;;8.25;2.90;;;-1.60;99.90;;;;;;2098452;28;20174;-72
2022/01/21 02:33:36;;;;;;;4.40;2.10;;;-1.60;99.90;;;;;;2090267;28;20186;-71
2022/01/21 02:34:37;;;;;;;5.27;2.77;;;-1.70;99.90;;;;;;2090217;28;20177;-72
2022/01/21 02:35:38;;;;;;;7.68;2.47;;;-1.80;99.90;;;;;;2090226;28;20185;-72
2022/01/21 02:36:39;;;;;;;8.80;2.93;;;-1.80;99.90;;;;;;2098492;28;20176;-72
2022/01/21 02:37:40;;;;;;;6.57;2.40;;;-1.70;99.90;;;;;;2098982;28;20181;-72
2022/01/21 02:38:41;;;;;;;7.13;2.58;;;-1.70;99.90;;;;;;2099004;28;20208;-71
2022/01/21 02:39:42;;;;;;;6.40;2.27;;;-1.60;99.90;;;;;;2098667;28;20222;-71
2022/01/21 02:40:44;;;;;;;5.03;2.25;;;-1.70;99.90;;;;;;2098410;28;20194;-71
2022/01/21 02:41:44;;;;;;;6.43;2.53;;;-1.70;99.90;;;;;;2090202;28;20234;-72
2022/01/21 02:42:46;;;;;;;5.67;2.37;;;-1.70;99.90;;;;;;2098589;28;20217;-71
2022/01/21 02:43:47;;;;;;;5.38;2.28;;;-1.70;99.90;;;;;;2097586;28;20704;-72
2022/01/21 02:44:48;;;;;;;6.03;2.33;;;-1.90;99.90;;;;;;2090172;28;20186;-70
2022/01/21 02:45:49;;;;;;;6.90;3.08;;;-2.00;99.90;;;;;;2098529;28;20210;-72
2022/01/21 02:46:55;;;;;;;6.90;1.97;;;-1.90;99.90;;;;;;2099156;28;20178;-71
2022/01/21 02:47:57;;;;;;;5.63;2.75;;;-1.90;99.90;;;;;;2098546;28;20183;-71
2022/01/21 02:48:57;;;;;;;6.32;2.90;;;-1.90;99.90;;;;;;2090577;28;20186;-71
2022/01/21 02:49:58;;;;;;;5.20;2.80;;;-2.00;99.90;;;;;;2098212;28;20264;-71
2022/01/21 02:50:59;;;;;;;4.87;2.27;;;-2.00;99.90;;;;;;2090020;28;20286;-72
2022/01/21 02:52:01;;;;;;;5.20;2.27;;;-2.00;99.90;;;;;;2081868;28;20188;-71
2022/01/21 02:53:12;;;;;;;5.32;2.80;;;-2.00;99.90;;;;;;2098420;28;20651;-70
2022/01/21 02:54:12;;;;;;;10.35;3.55;;;-2.00;99.90;;;;;;2099134;28;20233;-70
2022/01/21 02:55:13;;;;;;;6.13;2.63;;;-1.90;99.90;;;;;;2098556;28;20178;-71
2022/01/21 02:56:17;;;;;;;4.87;2.77;;;-1.90;99.90;;;;;;2098398;28;20719;-71
2022/01/21 02:57:18;;;;;;;8.07;2.75;;;-1.90;99.90;;;;;;2098278;28;20186;-71
2022/01/21 02:58:19;;;;;;;6.50;2.77;;;-2.00;99.90;;;;;;2098328;28;20194;-71
2022/01/21 02:59:20;;;;;;;6.38;3.38;;;-2.00;99.90;;;;;;2081376;28;20350;-71
2022/01/21 03:00:20;;;;;;;8.70;3.50;;;-2.00;99.90;;;;;;2081113;28;20257;-71
2022/01/21 03:01:22;;;;;;;7.50;2.60;;;-1.90;99.90;;;;;;2089862;28;20569;-72
2022/01/21 03:02:23;;;;;;;5.70;3.17;;;-1.90;99.90;;;;;;2090041;28;20210;-71
2022/01/21 03:03:23;;;;;;;4.93;2.50;;;-1.90;99.90;;;;;;2098348;28;20177;-71
2022/01/21 03:04:39;;;;;;;5.93;2.60;;;-1.90;99.90;;;;;;2098678;28;20179;-71
2022/01/21 03:05:40;;;;;;;4.85;2.65;;;-1.90;99.90;;;;;;2089969;28;20184;-71
2022/01/21 03:06:41;;;;;;;6.33;2.87;;;-2.00;99.90;;;;;;2091864;28;20180;-71
2022/01/21 03:07:42;;;;;;;4.33;2.40;;;-2.00;99.90;;;;;;2098442;28;20174;-72
2022/01/21 03:08:44;;;;;;;7.55;3.08;;;-2.00;99.90;;;;;;2098059;28;20188;-72
2022/01/21 03:09:45;;;;;;;7.50;3.28;;;-2.00;99.90;;;;;;2097892;28;20206;-72
2022/01/21 03:10:46;;;;;;;5.17;2.80;;;-2.00;99.90;;;;;;2089968;28;20214;-72
2022/01/21 03:11:46;;;;;;;8.73;2.47;;;-2.00;99.90;;;;;;2098175;28;20210;-71
2022/01/21 03:12:48;;;;;;;10.70;2.73;;;-2.00;99.90;;;;;;2098703;28;20186;-72
2022/01/21 03:13:49;;;;;;;10.00;3.30;;;-2.10;99.90;;;;;;2098078;28;20268;-72
2022/01/21 03:14:49;;;;;;;7.90;2.60;;;-2.20;99.90;;;;;;2089837;28;20194;-72
2022/01/21 03:15:52;;;;;;;8.73;3.17;;;-2.20;99.90;;;;;;2089861;28;20190;-72
2022/01/21 03:16:53;;;;;;;4.85;2.42;;;-2.20;99.90;;;;;;2097938;28;20186;-72
2022/01/21 03:17:54;;;;;;;6.57;3.20;;;-2.30;99.90;;;;;;2098841;28;20205;-71
2022/01/21 03:18:54;;;;;;;8.30;3.23;;;-2.30;99.90;;;;;;2097966;28;20578;-71
2022/01/21 03:19:55;;;;;;;9.10;3.20;;;-2.40;99.90;;;;;;2097872;28;20275;-72
2022/01/21 03:20:56;;;;;;;6.03;2.40;;;-2.40;99.90;;;;;;2098636;28;20179;-71
2022/01/21 03:21:56;;;;;;;4.20;2.53;;;-2.40;99.90;;;;;;2098169;28;20190;-72
2022/01/21 03:22:59;;;;;;;4.97;2.87;;;-2.50;99.90;;;;;;2098046;28;20253;-72
2022/01/21 03:24:00;;;;;;;8.18;3.83;;;-2.50;99.90;;;;;;2097977;28;20183;-72
2022/01/21 03:25:00;;;;;;;6.23;3.30;;;-2.60;99.90;;;;;;2098089;28;20665;-71
2022/01/21 03:26:01;;;;;;;7.73;2.97;;;-2.60;99.90;;;;;;2098522;28;20552;-71
2022/01/21 03:27:02;;;;;;;7.50;2.90;;;-2.60;99.90;;;;;;2098577;28;20202;-71
2022/01/21 03:28:03;;;;;;;7.27;2.80;;;-2.60;99.90;;;;;;2098063;28;20215;-71
2022/01/21 03:29:05;;;;;;;7.47;3.03;;;-2.60;99.90;;;;;;2089363;28;20179;-71
2022/01/21 03:30:09;;;;;;;10.25;3.88;;;-2.60;99.90;;;;;;2089795;28;20421;-72
2022/01/21 03:31:10;;;;;;;5.47;2.85;;;-2.60;99.90;;;;;;2090047;28;20190;-72
2022/01/21 03:32:10;;;;;;;4.90;2.30;;;-2.50;99.90;;;;;;2098048;28;20333;-72
2022/01/21 03:33:11;;;;;;;11.73;2.83;;;-2.50;99.90;;;;;;2097966;28;20213;-71
2022/01/21 03:34:12;;;;;;;8.10;3.27;;;-2.60;99.90;;;;;;2089861;28;20654;-72
2022/01/21 03:35:13;;;;;;;7.90;3.23;;;-2.50;99.90;;;;;;2081387;28;20299;-72
2022/01/21 03:36:14;;;;;;;6.30;3.50;;;-2.50;99.90;;;;;;2081422;28;20186;-72
2022/01/21 03:37:14;;;;;;;8.68;2.70;;;-2.40;99.90;;;;;;2089536;28;20222;-72
2022/01/21 03:38:15;;;;;;;6.93;2.67;;;-2.50;99.90;;;;;;2089859;28;20206;-72
2022/01/21 03:39:16;;;;;;;7.47;3.20;;;-2.50;99.90;;;;;;2097605;28;20184;-71
2022/01/21 03:40:17;;;;;;;9.10;3.33;;;-2.50;99.90;;;;;;2097817;28;20202;-71
2022/01/21 03:41:18;;;;;;;9.90;3.53;;;-2.50;99.90;;;;;;2081406;28;20245;-71
2022/01/21 03:42:18;;;;;;;5.97;2.90;;;-2.50;99.90;;;;;;2081468;28;20188;-71
2022/01/21 03:43:21;;;;;;;7.00;3.13;;;-2.60;99.90;;;;;;2097919;28;20304;-71
2022/01/21 03:44:23;;;;;;;7.07;2.97;;;-2.60;99.90;;;;;;2098503;28;20199;-71
2022/01/21 03:45:23;;;;;;;8.32;2.95;;;-2.60;99.90;;;;;;2097941;28;20668;-71
2022/01/21 03:46:24;;;;;;;4.97;2.60;;;-2.60;99.90;;;;;;2089593;28;20212;-71
2022/01/21 03:47:25;;;;;;;6.87;3.07;;;-2.60;99.90;;;;;;2097759;28;20182;-71
2022/01/21 03:48:26;;;;;;;9.03;3.27;;;-2.60;99.90;;;;;;2098443;28;20175;-71
2022/01/21 03:49:28;;;;;;;7.00;2.97;;;-2.60;99.90;;;;;;2089303;28;20195;-71
2022/01/21 03:50:32;;;;;;;7.82;2.90;;;-2.70;99.90;;;;;;2089738;28;20201;-71
2022/01/21 03:51:33;;;;;;;4.93;2.47;;;-2.70;99.90;;;;;;2098527;28;20208;-71
2022/01/21 03:52:34;;;;;;;6.40;2.90;;;-2.70;99.90;;;;;;2097576;28;20238;-71
2022/01/21 03:53:35;;;;;;;7.33;3.53;;;-2.70;99.90;;;;;;2089648;28;20410;-71
2022/01/21 03:54:36;;;;;;;8.43;3.43;;;-2.80;99.90;;;;;;2089548;28;20217;-71
2022/01/21 03:55:37;;;;;;;7.95;3.03;;;-2.80;99.90;;;;;;2097750;28;20203;-71
2022/01/21 03:56:39;;;;;;;6.45;2.40;;;-2.80;99.90;;;;;;2097754;28;20179;-71
2022/01/21 03:57:40;;;;;;;5.45;2.58;;;-2.80;99.90;;;;;;2097752;28;20175;-71
2022/01/21 03:58:41;;;;;;;6.72;2.50;;;-2.80;99.90;;;;;;2097451;28;20532;-71
2022/01/21 03:59:42;;;;;;;11.90;3.83;;;-2.90;99.90;;;;;;2097511;28;20226;-71
2022/01/21 04:00:51;;;;;;;9.47;2.80;;;-2.90;99.90;;;;;;2098399;28;20173;-71
2022/01/21 04:01:52;;;;;;;6.20;3.03;;;-2.90;99.90;;;;;;2097936;28;20183;-71
2022/01/21 04:02:53;;;;;;;7.37;2.87;;;-3.00;99.90;;;;;;2097863;28;20273;-72
2022/01/21 04:03:53;;;;;;;9.00;2.50;;;-3.00;99.90;;;;;;2097675;28;20204;-71
2022/01/21 04:04:54;;;;;;;6.97;2.77;;;-3.00;99.90;;;;;;2097762;28;20548;-71
2022/01/21 04:05:55;;;;;;;6.73;2.70;;;-3.00;99.90;;;;;;2097940;28;20685;-72
2022/01/21 04:06:55;;;;;;;6.10;2.33;;;-3.00;99.90;;;;;;2097744;28;20861;-71
2022/01/21 04:07:57;;;;;;;5.00;2.83;;;-3.00;99.90;;;;;;2097559;28;20186;-72
2022/01/21 04:08:57;;;;;;;5.93;2.40;;;-3.00;99.90;;;;;;2089220;28;20692;-71
2022/01/21 04:09:58;;;;;;;5.40;2.60;;;-3.10;99.90;;;;;;2097585;28;20202;-71
2022/01/21 04:10:58;;;;;;;6.80;3.03;;;-3.10;99.90;;;;;;2098239;28;20183;-71
2022/01/21 04:11:59;;;;;;;7.60;2.57;;;-3.10;99.90;;;;;;2097749;28;20182;-71
2022/01/21 04:13:00;;;;;;;12.77;2.60;;;-3.10;99.90;;;;;;2097692;28;20179;-72
2022/01/21 04:14:00;;;;;;;7.13;3.03;;;-3.10;99.90;;;;;;2098259;28;20186;-71
2022/01/21 04:15:01;;;;;;;8.43;2.63;;;-3.10;99.90;;;;;;2097530;28;20200;-72
2022/01/21 04:16:02;;;;;;;5.37;2.77;;;-3.10;99.90;;;;;;2089346;28;20307;-72
2022/01/21 04:17:04;;;;;;;6.47;2.60;;;-3.20;99.90;;;;;;2089155;28;20183;-72
2022/01/21 04:18:04;;;;;;;6.75;2.20;;;-3.10;99.90;;;;;;2097607;28;20213;-73
2022/01/21 04:19:05;;;;;;;9.17;2.67;;;-3.10;99.90;;;;;;2097849;28;20660;-72
2022/01/21 04:20:11;;;;;;;5.67;2.70;;;-3.10;99.90;;;;;;2097654;28;20227;-72
2022/01/21 04:21:11;;;;;;;4.00;2.50;;;-3.20;99.90;;;;;;2097569;28;20257;-72
2022/01/21 04:22:12;;;;;;;6.73;3.10;;;-3.20;99.90;;;;;;2097623;28;20182;-72
2022/01/21 04:23:14;;;;;;;6.30;3.20;;;-3.20;99.90;;;;;;2097622;28;20220;-72
2022/01/21 04:24:16;;;;;;;6.28;2.38;;;-3.30;99.90;;;;;;2097606;28;20169;-72
2022/01/21 04:25:16;;;;;;;6.28;2.58;;;-3.40;99.90;;;;;;2089237;28;20236;-72
2022/01/21 04:26:17;;;;;;;7.27;2.73;;;-3.30;99.90;;;;;;2089401;28;20183;-72
2022/01/21 04:27:18;;;;;;;5.40;2.70;;;-3.30;99.90;;;;;;2089269;28;20203;-73
2022/01/21 04:28:19;;;;;;;9.27;2.80;;;-3.30;99.90;;;;;;2081233;28;20183;-72
2022/01/21 04:29:20;;;;;;;5.43;2.50;;;-3.20;99.90;;;;;;2089097;28;20226;-72
2022/01/21 04:30:20;;;;;;;11.30;2.90;;;-3.20;99.90;;;;;;2097692;28;20185;-72
2022/01/21 04:31:21;;;;;;;6.77;2.40;;;-3.20;99.90;;;;;;2089578;28;20601;-72
2022/01/21 04:32:22;;;;;;;4.23;2.20;;;-3.10;99.90;;;;;;2089340;28;20243;-72
2022/01/21 04:33:22;;;;;;;4.87;2.80;;;-3.10;99.90;;;;;;2089547;28;20188;-72
2022/01/21 04:34:23;;;;;;;4.73;2.37;;;-3.10;99.90;;;;;;2097469;28;20176;-72
2022/01/21 04:35:24;;;;;;;5.80;2.57;;;-3.10;99.90;;;;;;2097384;28;20182;-72
2022/01/21 04:36:24;;;;;;;9.13;2.60;;;-3.10;99.90;;;;;;2089302;28;20643;-72
2022/01/21 04:37:26;;;;;;;5.00;3.03;;;-3.20;99.90;;;;;;2097600;28;20285;-73
2022/01/21 04:38:27;;;;;;;5.20;2.60;;;-3.20;99.90;;;;;;2097466;28;20678;-72
2022/01/21 04:39:33;;;;;;;8.73;3.10;;;-3.20;99.90;;;;;;2097257;28;20291;-72
2022/01/21 04:40:40;;;;;;;7.82;2.50;;;-3.20;99.90;;;;;;2097523;28;20176;-72
2022/01/21 04:47:59;;;;;;;5.53;2.67;;;-3.10;99.90;;;;;;2097843;28;20188;-72
2022/01/21 04:48:59;;;;;;;6.83;2.53;;;-3.10;99.90;;;;;;2097190;28;20178;-72
2022/01/21 04:50:02;;;;;;;15.37;6.50;;;-3.10;99.90;;;;;;2089249;28;20192;-73
2022/01/21 04:51:20;;;;;;;10.95;3.97;;;-3.10;99.90;;;;;;2089541;28;20187;-72
2022/01/21 04:52:22;;;;;;;4.97;3.08;;;-3.20;99.90;;;;;;2091459;28;20170;-72
2022/01/21 04:53:26;;;;;;;11.68;2.83;;;-3.20;99.90;;;;;;2097475;28;20657;-73
2022/01/21 04:54:26;;;;;;;6.80;2.20;;;-3.20;99.90;;;;;;2089499;28;20220;-73
2022/01/21 04:55:27;;;;;;;7.13;2.53;;;-3.20;99.90;;;;;;2089078;28;20241;-71
2022/01/21 04:56:28;;;;;;;5.30;2.40;;;-3.20;99.90;;;;;;2097368;28;20225;-72
2022/01/21 04:57:29;;;;;;;7.50;2.97;;;-3.30;99.90;;;;;;2089108;28;20185;-72
2022/01/21 04:58:30;;;;;;;7.35;2.63;;;-3.30;99.90;;;;;;2080900;28;20227;-73
2022/01/21 04:59:31;;;;;;;8.02;2.75;;;-3.30;99.90;;;;;;2088620;28;20200;-72
2022/01/21 05:00:32;;;;;;;7.45;2.90;;;-3.30;99.90;;;;;;2097175;28;20191;-71
2022/01/21 05:01:33;;;;;;;7.77;2.40;;;-3.20;99.90;;;;;;2097917;28;20552;-72
2022/01/21 05:02:35;;;;;;;6.17;2.67;;;-3.20;99.90;;;;;;2097213;28;20168;-73
2022/01/21 05:03:37;;;;;;;8.07;2.30;;;-3.20;99.90;;;;;;2089543;28;20622;-72
2022/01/21 05:04:38;;;;;;;6.97;2.38;;;-3.20;99.90;;;;;;2089206;28;20659;-72
2022/01/21 05:05:40;;;;;;;7.32;2.47;;;-3.20;99.90;;;;;;2089388;28;20176;-71
2022/01/21 05:06:41;;;;;;;9.43;2.78;;;-3.20;99.90;;;;;;2096848;28;20679;-72
2022/01/21 05:07:42;;;;;;;5.68;3.00;;;-3.20;99.90;;;;;;2098031;28;20175;-72
2022/01/21 05:09:44;;;;;;;7.97;3.50;;;-3.20;99.90;;;;;;2089095;28;20286;-71
2022/01/21 05:10:44;;;;;;;5.50;2.30;;;-3.30;99.90;;;;;;2089189;28;20555;-72
2022/01/21 05:11:47;;;;;;;7.27;2.47;;;-3.30;99.90;;;;;;2089164;28;20737;-72
2022/01/21 05:12:47;;;;;;;10.32;2.40;;;-3.20;99.90;;;;;;2089387;28;20181;-72
2022/01/21 05:13:58;;;;;;;4.57;2.27;;;-3.20;99.90;;;;;;2097315;28;20190;-72
2022/01/21 05:17:05;;;;;;;5.32;2.88;;;-3.20;99.90;;;;;;2097391;28;20186;-72
2022/01/21 05:18:06;;;;;;;5.78;2.50;;;-3.20;99.90;;;;;;2097338;28;20573;-72
2022/01/21 05:19:14;;;;;;;9.70;2.53;;;-3.20;99.90;;;;;;2097482;28;20258;-72
2022/01/21 05:20:17;;;;;;;6.80;2.38;;;-3.20;99.90;;;;;;2088708;28;20208;-72
2022/01/21 05:21:17;;;;;;;4.93;2.17;;;-3.10;99.90;;;;;;2089848;28;20727;-72
2022/01/21 05:22:18;;;;;;;6.40;2.07;;;-3.10;99.90;;;;;;2097104;28;20181;-72
2022/01/21 05:23:19;;;;;;;7.17;2.30;;;-3.10;99.90;;;;;;2097054;28;20177;-71
2022/01/21 05:24:21;;;;;;;7.10;2.23;;;-3.00;99.90;;;;;;2080371;28;20216;-72
2022/01/21 05:25:22;;;;;;;5.78;2.58;;;-3.00;99.90;;;;;;2080902;28;20177;-71
2022/01/21 05:26:23;;;;;;;6.63;2.00;;;-3.00;99.90;;;;;;2097078;28;20181;-71
2022/01/21 05:27:25;;;;;;;18.05;2.63;;;-3.00;99.90;;;;;;2097651;28;20260;-71
2022/01/21 05:28:26;;;;;;;7.30;2.33;;;-3.00;99.90;;;;;;2098798;28;20548;-72
2022/01/21 05:29:29;;;;;;;7.63;2.13;;;-2.90;99.90;;;;;;2097164;28;20206;-72
2022/01/21 05:30:30;;;;;;;10.98;3.13;;;-2.80;99.90;;;;;;2097386;28;20178;-72
2022/01/21 05:31:31;;;;;;;7.77;3.23;;;-2.80;99.90;;;;;;2089220;28;20695;-72
2022/01/21 05:32:32;;;;;;;4.60;2.30;;;-2.80;99.90;;;;;;2089190;28;20555;-72
2022/01/21 05:33:32;;;;;;;8.60;2.30;;;-2.80;99.90;;;;;;2097382;28;20181;-71
2022/01/21 05:34:34;;;;;;;8.20;2.20;;;-2.70;99.90;;;;;;2098126;28;20183;-72
2022/01/21 05:35:34;;;;;;;5.95;2.58;;;-2.70;99.90;;;;;;2097943;28;20205;-72
2022/01/21 05:36:37;;;;;;;4.77;2.00;;;-2.70;99.90;;;;;;2097096;28;20180;-72
2022/01/21 05:37:38;;;;;;;5.28;2.63;;;-2.70;99.90;;;;;;2080913;28;20188;-72
2022/01/21 05:38:39;;;;;;;4.30;2.53;;;-2.60;99.90;;;;;;2089004;28;20179;-72
2022/01/21 05:39:40;;;;;;;10.20;2.80;;;-2.60;99.90;;;;;;2104997;28;20205;-72
2022/01/21 05:40:42;;;;;;;4.83;2.20;;;-2.50;99.90;;;;;;2097628;28;20669;-72
2022/01/21 05:41:49;;;;;;;6.40;2.50;;;-2.50;99.90;;;;;;2097661;28;20654;-72
2022/01/21 05:42:50;;;;;;;8.32;2.50;;;-2.50;99.90;;;;;;2096996;28;20182;-73
2022/01/21 05:44:00;;;;;;;5.13;2.00;;;-2.40;99.90;;;;;;2089657;28;20187;-72
2022/01/21 05:46:26;;;;;;;6.50;2.45;;;-2.40;99.90;;;;;;2097557;28;20677;-72
2022/01/21 05:47:26;;;;;;;4.35;1.98;;;-2.40;99.90;;;;;;2097633;28;20171;-72
2022/01/21 05:48:27;;;;;;;7.10;3.43;;;-2.30;99.90;;;;;;2097649;28;20721;-72
2022/01/21 05:49:30;;;;;;;7.33;4.50;;;-2.40;99.90;;;;;;2096769;28;20232;-72
2022/01/21 05:50:31;;;;;;;15.40;6.03;;;-2.50;99.90;;;;;;2088926;28;20226;-72
2022/01/21 05:51:31;;;;;;;8.73;4.37;;;-2.60;99.90;;;;;;2097058;28;20186;-72
2022/01/21 05:52:37;;;;;;;15.60;5.43;;;-2.60;99.90;;;;;;2088628;28;20240;-72
2022/01/21 05:53:39;;;;;;;8.38;4.10;;;-2.60;99.90;;;;;;2081174;28;20168;-73
2022/01/21 05:54:41;;;;;;;15.50;5.50;;;-2.70;99.90;;;;;;2089511;28;20262;-72
2022/01/21 05:55:43;;;;;;;15.05;5.65;;;-2.70;99.90;;;;;;2096950;28;20175;-72
2022/01/21 05:56:43;;;;;;;15.57;5.38;;;-2.70;99.90;;;;;;2088942;28;20181;-72
2022/01/21 05:57:44;;;;;;;10.23;5.13;;;-2.70;99.90;;;;;;2080407;28;20180;-72
2022/01/21 05:58:45;;;;;;;10.07;4.90;;;-2.60;99.90;;;;;;2080354;28;20715;-72
2022/01/21 05:59:49;;;;;;;10.37;5.73;;;-2.50;99.90;;;;;;2088278;28;20985;-72
2022/01/21 06:00:49;;;;;;;7.15;3.60;;;-2.40;99.90;;;;;;2089041;28;20590;-72
2022/01/21 06:01:51;;;;;;;6.87;3.97;;;-2.30;99.90;;;;;;2088916;28;20187;-72
2022/01/21 06:02:51;;;;;;;8.93;4.00;;;-2.30;99.90;;;;;;2080354;28;20188;-72
2022/01/21 06:03:52;;;;;;;7.20;3.57;;;-2.30;99.90;;;;;;2080590;28;20185;-72
2022/01/21 06:04:53;;;;;;;9.10;4.10;;;-2.40;99.90;;;;;;2088735;28;20215;-72
2022/01/21 06:05:54;;;;;;;8.50;4.40;;;-2.40;99.90;;;;;;2096927;28;20186;-72
2022/01/21 06:06:54;;;;;;;7.03;3.53;;;-2.40;99.90;;;;;;2096573;28;20182;-72
2022/01/21 06:07:55;;;;;;;9.13;4.60;;;-2.30;99.90;;;;;;2096699;28;20243;-72
2022/01/21 06:08:56;;;;;;;10.67;4.97;;;-2.40;99.90;;;;;;2096847;28;20228;-72
2022/01/21 06:09:57;;;;;;;9.15;4.90;;;-2.40;99.90;;;;;;2088493;28;20207;-72
2022/01/21 06:10:58;;;;;;;9.67;3.80;;;-2.40;99.90;;;;;;2096944;28;20218;-72
2022/01/21 06:11:58;;;;;;;10.33;4.30;;;-2.30;99.90;;;;;;2097384;28;20193;-72